createdAt,value
2019-03-21T00:00:11.794Z,10.90
2019-03-21T00:05:17.987Z,10.90
2019-03-21T00:10:59.730Z,10.80
2019-03-21T00:16:05.870Z,10.70
2019-03-21T00:21:11.932Z,10.70
2019-03-21T00:26:17.963Z,10.60
2019-03-21T00:31:24.025Z,10.60
2019-03-21T00:36:30.200Z,10.60
2019-03-21T00:41:36.198Z,10.70
2019-03-21T00:46:42.261Z,10.60
2019-03-21T00:51:48.416Z,10.60
2019-03-21T00:56:54.401Z,10.70
2019-03-21T01:02:00.479Z,10.60
2019-03-21T01:07:07.300Z,10.60
2019-03-21T01:12:13.786Z,10.50
2019-03-21T01:17:19.814Z,10.50
2019-03-21T01:22:25.831Z,10.40
2019-03-21T01:27:31.907Z,10.30
2019-03-21T01:32:37.960Z,10.30
2019-03-21T01:37:43.936Z,10.30
2019-03-21T01:42:50.004Z,10.30
2019-03-21T01:47:56.035Z,10.30
2019-03-21T01:53:02.164Z,10.30
2019-03-21T01:58:08.162Z,10.30
2019-03-21T02:03:14.212Z,10.30
2019-03-21T02:08:20.199Z,10.40
2019-03-21T02:13:26.147Z,10.40
2019-03-21T02:18:32.137Z,10.40
2019-03-21T02:23:38.215Z,10.50
2019-03-21T02:28:43.992Z,10.60
2019-03-21T02:33:49.926Z,10.60
2019-03-21T02:38:55.923Z,10.60
2019-03-21T02:44:02.020Z,10.60
2019-03-21T02:49:07.976Z,10.70
2019-03-21T02:54:13.807Z,10.70
2019-03-21T02:59:19.730Z,10.70
2019-03-21T03:04:25.697Z,10.70
2019-03-21T03:09:31.687Z,10.60
2019-03-21T03:14:37.674Z,10.70
2019-03-21T03:19:43.622Z,10.70
2019-03-21T03:24:49.832Z,10.70
2019-03-21T03:29:55.960Z,10.70
2019-03-21T03:35:01.838Z,10.70
2019-03-21T03:40:09.615Z,10.70
2019-03-21T03:45:36.251Z,10.70
2019-03-21T03:50:29.220Z,10.80
2019-03-21T03:55:35.375Z,10.80
2019-03-21T04:00:41.451Z,10.80
2019-03-21T04:05:47.547Z,10.80
2019-03-21T04:10:53.582Z,10.70
2019-03-21T04:15:59.677Z,10.80
2019-03-21T04:21:06.107Z,10.80
2019-03-21T04:26:15.573Z,10.80
2019-03-21T04:31:21.802Z,10.90
2019-03-21T04:36:27.799Z,10.90
2019-03-21T04:41:33.619Z,10.90
2019-03-21T04:46:39.424Z,10.80
2019-03-21T04:51:45.453Z,10.90
2019-03-21T04:56:51.343Z,10.90
2019-03-21T05:01:57.379Z,10.90
2019-03-21T05:07:03.354Z,10.90
2019-03-21T05:12:09.483Z,10.90
2019-03-21T05:17:15.329Z,10.90
2019-03-21T05:22:21.217Z,10.90
2019-03-21T05:27:27.009Z,10.90
2019-03-21T05:32:33.322Z,10.90
2019-03-21T05:37:39.181Z,10.90
2019-03-21T05:42:49.027Z,10.90
2019-03-21T05:47:55.097Z,10.90
2019-03-21T05:53:00.951Z,10.90
2019-03-21T05:58:06.830Z,10.90
2019-03-21T06:03:18.872Z,10.90
2019-03-21T06:08:27.950Z,10.80
2019-03-21T06:13:33.966Z,10.80
2019-03-21T06:19:12.921Z,10.80
2019-03-21T06:24:37.115Z,10.80
2019-03-21T06:29:43.111Z,10.80
2019-03-21T06:34:49.139Z,10.80
2019-03-21T06:39:55.161Z,10.80
2019-03-21T06:45:01.248Z,10.70
2019-03-21T06:50:07.606Z,10.70
2019-03-21T06:55:13.553Z,10.70
2019-03-21T07:00:19.475Z,10.70
2019-03-21T07:05:26.914Z,10.70
2019-03-21T07:10:32.980Z,10.70
2019-03-21T07:15:38.921Z,10.70
2019-03-21T07:20:44.914Z,10.60
2019-03-21T07:25:50.924Z,10.60
2019-03-21T07:30:56.857Z,10.60
2019-03-21T07:36:02.835Z,10.70
2019-03-21T07:41:08.708Z,10.70
2019-03-21T07:46:14.924Z,10.80
2019-03-21T07:51:20.987Z,10.80
2019-03-21T07:56:27.012Z,10.80
2019-03-21T08:01:33.155Z,10.80
2019-03-21T08:06:39.185Z,10.80
2019-03-21T08:11:45.193Z,10.90
2019-03-21T08:16:51.103Z,10.90
2019-03-21T08:21:57.108Z,11.00
2019-03-21T08:27:02.954Z,11.00
2019-03-21T08:32:08.786Z,11.10
2019-03-21T08:37:14.875Z,11.10
2019-03-21T08:42:20.737Z,11.10
2019-03-21T08:47:26.777Z,11.10
2019-03-21T08:52:32.852Z,11.30
2019-03-21T08:57:38.821Z,11.40
2019-03-21T09:02:44.934Z,11.50
2019-03-21T09:07:51.116Z,11.50
2019-03-21T09:12:57.157Z,11.50
2019-03-21T09:18:03.232Z,11.60
2019-03-21T09:23:09.082Z,11.60
2019-03-21T09:28:15.167Z,11.70
2019-03-21T09:33:21.283Z,11.70
2019-03-21T09:38:27.421Z,11.80
2019-03-21T09:43:33.508Z,11.80
2019-03-21T09:48:39.594Z,11.80
2019-03-21T09:53:45.873Z,11.90
2019-03-21T09:58:51.937Z,11.90
2019-03-21T10:03:57.799Z,12.10
2019-03-21T10:09:05.548Z,12.10
2019-03-21T10:14:11.802Z,12.20
2019-03-21T10:19:18.063Z,12.30
2019-03-21T10:24:23.859Z,12.40
2019-03-21T10:29:30.044Z,12.50
2019-03-21T10:34:35.851Z,12.50
2019-03-21T10:39:41.805Z,12.60
2019-03-21T10:44:47.730Z,12.60
2019-03-21T10:49:53.832Z,12.60
2019-03-21T10:54:59.871Z,12.70
2019-03-21T11:00:08.625Z,12.70
2019-03-21T11:05:14.640Z,12.80
2019-03-21T11:10:20.610Z,12.80
2019-03-21T11:15:26.714Z,12.80
2019-03-21T11:20:40.109Z,12.80
2019-03-21T11:25:46.233Z,12.90
2019-03-21T11:30:52.249Z,12.90
2019-03-21T11:35:58.121Z,12.90
2019-03-21T11:41:03.985Z,12.90
2019-03-21T11:46:09.985Z,12.90
2019-03-21T11:51:15.955Z,12.90
2019-03-21T11:56:22.061Z,13.00
2019-03-21T12:01:28.252Z,12.90
2019-03-21T12:06:34.377Z,13.00
2019-03-21T12:11:41.422Z,13.00
2019-03-21T12:16:47.260Z,13.10
2019-03-21T12:21:53.132Z,13.10
2019-03-21T12:26:59.075Z,13.10
2019-03-21T12:32:05.102Z,13.20
2019-03-21T12:37:11.142Z,13.40
2019-03-21T12:42:17.069Z,13.40
2019-03-21T12:47:31.088Z,13.40
2019-03-21T12:52:41.033Z,13.60
2019-03-21T12:57:38.301Z,13.70
2019-03-21T13:02:44.530Z,13.90
2019-03-21T13:07:50.603Z,14.00
2019-03-21T13:12:56.693Z,14.20
2019-03-21T13:18:02.775Z,14.00
2019-03-21T13:23:08.813Z,13.90
2019-03-21T13:28:14.831Z,13.80
2019-03-21T13:33:20.875Z,13.80
2019-03-21T13:38:26.937Z,13.70
2019-03-21T13:43:32.722Z,13.80
2019-03-21T13:48:38.610Z,13.80
2019-03-21T13:53:44.533Z,13.80
2019-03-21T13:58:50.770Z,13.80
2019-03-21T14:03:56.825Z,13.80
2019-03-21T14:09:21.297Z,13.80
2019-03-21T14:14:27.306Z,13.80
2019-03-21T14:19:33.377Z,13.90
2019-03-21T14:24:39.472Z,13.90
2019-03-21T14:29:45.630Z,13.90
2019-03-21T14:34:51.698Z,14.00
2019-03-21T14:39:57.700Z,13.90
2019-03-21T14:45:03.962Z,14.00
2019-03-21T14:50:11.414Z,14.10
2019-03-21T14:55:17.490Z,14.30
2019-03-21T15:00:23.553Z,14.50
2019-03-21T15:05:29.616Z,14.50
2019-03-21T15:10:35.578Z,14.40
2019-03-21T15:15:41.782Z,14.30
2019-03-21T15:20:48.017Z,14.30
2019-03-21T15:25:54.064Z,14.30
2019-03-21T15:31:00.558Z,14.20
2019-03-21T15:36:06.485Z,14.20
2019-03-21T15:41:12.549Z,14.10
2019-03-21T15:46:18.658Z,14.20
2019-03-21T15:51:24.711Z,14.20
2019-03-21T15:56:30.818Z,14.20
2019-03-21T16:01:36.581Z,14.20
2019-03-21T16:06:42.506Z,14.20
2019-03-21T16:11:48.393Z,14.20
2019-03-21T16:16:54.232Z,14.20
2019-03-21T16:22:00.238Z,14.20
2019-03-21T16:27:06.451Z,14.10
2019-03-21T16:32:12.294Z,14.20
2019-03-21T16:37:18.290Z,14.10
2019-03-21T16:42:24.277Z,14.00
2019-03-21T16:47:30.229Z,14.10
2019-03-21T16:52:36.185Z,14.10
2019-03-21T16:57:42.252Z,14.10
2019-03-21T17:02:48.394Z,14.00
2019-03-21T17:07:54.319Z,14.00
2019-03-21T17:13:04.450Z,14.00
2019-03-21T17:18:08.243Z,13.90
2019-03-21T17:23:14.093Z,13.90
2019-03-21T17:28:20.050Z,13.90
2019-03-21T17:33:26.091Z,13.90
2019-03-21T17:38:32.133Z,13.90
2019-03-21T17:43:38.181Z,13.90
2019-03-21T17:48:44.154Z,13.90
2019-03-21T17:53:50.237Z,13.90
2019-03-21T17:58:56.206Z,13.90
2019-03-21T18:04:02.418Z,13.90
2019-03-21T18:09:09.359Z,13.90
2019-03-21T18:14:15.134Z,14.00
2019-03-21T18:19:21.306Z,13.90
2019-03-21T18:24:27.354Z,13.80
2019-03-21T18:29:33.337Z,13.80
2019-03-21T18:34:39.166Z,13.90
2019-03-21T18:39:45.154Z,13.90
2019-03-21T18:44:51.150Z,13.80
2019-03-21T18:49:57.059Z,13.90
2019-03-21T18:55:06.739Z,13.90
2019-03-21T19:00:11.262Z,13.80
2019-03-21T19:05:17.369Z,13.80
2019-03-21T19:10:23.538Z,13.80
2019-03-21T19:15:29.601Z,13.90
2019-03-21T19:20:35.506Z,13.80
2019-03-21T19:25:41.446Z,13.80
2019-03-21T19:30:47.353Z,13.80
2019-03-21T19:35:53.399Z,13.80
2019-03-21T19:40:59.430Z,13.80
2019-03-21T19:46:05.354Z,13.70
2019-03-21T19:51:11.367Z,13.70
2019-03-21T19:56:17.401Z,13.70
2019-03-21T20:01:23.492Z,13.60
2019-03-21T20:06:29.446Z,13.60
2019-03-21T20:11:35.530Z,13.60
2019-03-21T20:16:41.439Z,13.60
2019-03-21T20:21:48.363Z,13.50
2019-03-21T20:26:54.619Z,13.50
2019-03-21T20:32:00.625Z,13.50
2019-03-21T20:37:06.431Z,13.60
2019-03-21T20:42:12.425Z,13.70
2019-03-21T20:47:18.357Z,13.60
2019-03-21T20:52:24.463Z,13.60
2019-03-21T20:57:30.609Z,13.60
2019-03-21T21:02:36.678Z,13.50
2019-03-21T21:07:42.841Z,13.50
2019-03-21T21:12:48.678Z,13.50
2019-03-21T21:17:54.740Z,13.40
2019-03-21T21:23:00.696Z,13.40
2019-03-21T21:28:06.702Z,13.50
2019-03-21T21:33:12.572Z,13.30
2019-03-21T21:38:18.628Z,13.30
2019-03-21T21:43:24.747Z,13.20
2019-03-21T21:48:30.686Z,13.20
2019-03-21T21:53:36.487Z,13.20
2019-03-21T21:58:42.525Z,13.10
2019-03-21T22:03:48.617Z,13.10
2019-03-21T22:08:54.696Z,13.10
2019-03-21T22:14:00.700Z,13.10
2019-03-21T22:19:06.635Z,13.10
2019-03-21T22:24:12.815Z,13.10
2019-03-21T22:29:18.889Z,13.10
2019-03-21T22:34:24.782Z,13.10
2019-03-21T22:39:30.851Z,13.10
2019-03-21T22:44:36.903Z,13.00
2019-03-21T22:49:43.522Z,13.00
2019-03-21T22:54:49.391Z,12.90
2019-03-21T22:59:55.566Z,12.90
2019-03-21T23:05:01.636Z,12.90
2019-03-21T23:10:08.337Z,12.80
2019-03-21T23:15:14.584Z,12.80
2019-03-21T23:20:20.684Z,12.80
2019-03-21T23:25:26.772Z,12.90
2019-03-21T23:30:33.535Z,13.00
2019-03-21T23:35:39.557Z,13.00
2019-03-21T23:40:45.605Z,12.90
2019-03-21T23:45:51.691Z,12.90
2019-03-21T23:50:57.681Z,12.80
2019-03-21T23:56:03.766Z,12.80
